createdAt,value
2019-05-25T00:00:00.733Z,80.47
2019-05-25T00:02:08.090Z,80.35
2019-05-25T00:04:14.589Z,80.34
2019-05-25T00:06:21.213Z,80.14
2019-05-25T00:08:27.700Z,80.06
2019-05-25T00:10:34.239Z,80.13
2019-05-25T00:12:40.646Z,80.23
2019-05-25T00:14:47.038Z,80.29
2019-05-25T00:16:53.426Z,80.37
2019-05-25T00:18:59.886Z,80.35
2019-05-25T00:21:06.351Z,80.36
2019-05-25T00:23:12.778Z,80.50
2019-05-25T00:25:19.264Z,80.60
2019-05-25T00:27:25.716Z,80.84
2019-05-25T00:29:32.217Z,81.07
2019-05-25T00:31:38.790Z,81.24
2019-05-25T00:33:46.424Z,81.70
2019-05-25T00:35:53.193Z,81.77
2019-05-25T00:37:59.719Z,81.68
2019-05-25T00:40:08.627Z,81.63
2019-05-25T00:42:15.003Z,81.61
2019-05-25T00:44:21.435Z,81.67
2019-05-25T00:46:27.939Z,81.71
2019-05-25T00:48:34.431Z,81.75
2019-05-25T00:50:40.863Z,81.71
2019-05-25T00:52:47.564Z,81.75
2019-05-25T00:54:53.934Z,81.98
2019-05-25T00:57:00.528Z,82.08
2019-05-25T00:59:07.022Z,82.04
2019-05-25T01:01:13.421Z,82.04
2019-05-25T01:03:19.941Z,82.19
2019-05-25T01:05:26.383Z,82.31
2019-05-25T01:07:32.767Z,82.33
2019-05-25T01:09:39.262Z,82.31
2019-05-25T01:11:45.688Z,82.34
2019-05-25T01:13:52.119Z,82.55
2019-05-25T01:15:58.721Z,82.67
2019-05-25T01:18:05.309Z,82.80
2019-05-25T01:20:13.977Z,82.91
2019-05-25T01:22:20.465Z,82.95
2019-05-25T01:24:42.950Z,83.02
2019-05-25T01:26:35.177Z,83.01
2019-05-25T01:28:41.607Z,82.84
2019-05-25T01:30:48.018Z,82.75
2019-05-25T01:32:54.469Z,82.54
2019-05-25T01:35:00.939Z,82.68
2019-05-25T01:37:07.466Z,82.86
2019-05-25T01:39:13.961Z,83.26
2019-05-25T01:41:20.504Z,83.51
2019-05-25T01:43:26.932Z,83.74
2019-05-25T01:45:33.407Z,83.80
2019-05-25T01:47:39.839Z,83.86
2019-05-25T01:49:46.272Z,83.92
2019-05-25T01:51:52.688Z,84.01
2019-05-25T01:54:01.073Z,83.91
2019-05-25T01:56:07.561Z,84.20
2019-05-25T01:58:14.014Z,84.28
2019-05-25T02:00:22.539Z,84.38
2019-05-25T02:02:28.971Z,84.53
2019-05-25T02:04:35.338Z,84.73
2019-05-25T02:06:41.746Z,85.17
2019-05-25T02:08:48.240Z,85.47
2019-05-25T02:10:54.654Z,85.64
2019-05-25T02:13:01.068Z,85.89
2019-05-25T02:15:11.417Z,86.10
2019-05-25T02:17:17.800Z,86.46
2019-05-25T02:19:24.230Z,86.53
2019-05-25T02:21:30.732Z,86.60
2019-05-25T02:23:37.169Z,86.87
2019-05-25T02:25:45.504Z,86.99
2019-05-25T02:27:54.193Z,87.07
2019-05-25T02:30:00.613Z,87.16
2019-05-25T02:32:08.328Z,87.10
2019-05-25T02:34:14.745Z,87.15
2019-05-25T02:36:21.163Z,87.23
2019-05-25T02:38:28.000Z,87.20
2019-05-25T02:40:35.785Z,87.20
2019-05-25T02:42:42.194Z,87.29
2019-05-25T02:44:48.714Z,87.45
2019-05-25T02:46:55.145Z,87.64
2019-05-25T02:49:01.682Z,87.63
2019-05-25T02:51:08.184Z,87.47
2019-05-25T02:53:14.609Z,87.28
2019-05-25T02:55:33.773Z,86.99
2019-05-25T02:57:30.773Z,86.96
2019-05-25T02:59:37.211Z,86.52
2019-05-25T03:01:43.676Z,86.17
2019-05-25T03:03:50.547Z,85.75
2019-05-25T03:05:58.519Z,85.44
2019-05-25T03:08:05.359Z,85.21
2019-05-25T03:10:13.039Z,85.08
2019-05-25T03:12:20.541Z,84.87
2019-05-25T03:14:27.035Z,84.65
2019-05-25T03:16:33.558Z,84.25
2019-05-25T03:18:40.006Z,84.09
2019-05-25T03:20:48.810Z,83.76
2019-05-25T03:22:55.279Z,83.51
2019-05-25T03:25:01.765Z,83.25
2019-05-25T03:27:09.243Z,82.92
2019-05-25T03:29:15.665Z,82.52
2019-05-25T03:31:22.081Z,81.94
2019-05-25T03:33:29.592Z,81.15
2019-05-25T03:35:35.986Z,80.78
2019-05-25T03:37:42.384Z,80.67
2019-05-25T03:39:48.813Z,80.14
2019-05-25T03:41:55.224Z,79.77
2019-05-25T03:44:01.675Z,79.69
2019-05-25T03:46:08.051Z,79.48
2019-05-25T03:48:14.648Z,79.19
2019-05-25T03:50:21.227Z,78.75
2019-05-25T03:52:27.660Z,78.69
2019-05-25T03:54:34.119Z,78.34
2019-05-25T03:56:40.691Z,78.13
2019-05-25T03:58:47.112Z,77.51
2019-05-25T04:00:53.589Z,76.70
2019-05-25T04:02:59.984Z,75.86
2019-05-25T04:05:07.817Z,74.98
2019-05-25T04:07:14.224Z,72.79
2019-05-25T04:09:20.718Z,69.68
2019-05-25T04:11:27.168Z,66.27
2019-05-25T04:13:33.611Z,62.06
2019-05-25T04:15:39.989Z,59.57
2019-05-25T04:17:46.520Z,55.41
2019-05-25T04:19:52.967Z,52.45
2019-05-25T04:21:59.388Z,50.27
2019-05-25T04:24:06.538Z,47.94
2019-05-25T04:26:22.181Z,45.22
2019-05-25T04:28:21.078Z,44.21
2019-05-25T04:30:28.845Z,43.13
2019-05-25T04:32:35.309Z,41.23
2019-05-25T04:34:41.750Z,39.90
2019-05-25T04:36:48.177Z,38.44
2019-05-25T04:38:55.671Z,36.74
2019-05-25T04:41:02.081Z,37.05
2019-05-25T04:43:08.513Z,36.19
2019-05-25T04:45:16.557Z,35.66
2019-05-25T04:47:26.898Z,35.21
2019-05-25T04:49:31.301Z,35.06
2019-05-25T04:51:37.700Z,33.84
2019-05-25T04:53:44.404Z,32.54
2019-05-25T04:55:51.825Z,32.83
2019-05-25T04:57:59.766Z,32.60
2019-05-25T05:00:10.577Z,31.19
2019-05-25T05:02:17.014Z,30.88
2019-05-25T05:04:24.273Z,29.35
2019-05-25T05:06:30.723Z,28.50
2019-05-25T05:08:37.143Z,27.85
2019-05-25T05:10:44.505Z,27.24
2019-05-25T05:12:53.475Z,26.30
2019-05-25T05:14:59.934Z,25.52
2019-05-25T05:17:06.551Z,25.82
2019-05-25T05:19:13.041Z,25.35
2019-05-25T05:21:19.498Z,24.65
2019-05-25T05:23:26.870Z,24.69
2019-05-25T05:25:34.318Z,23.75
2019-05-25T05:27:40.719Z,23.60
2019-05-25T05:29:47.155Z,24.47
2019-05-25T05:31:53.579Z,24.68
2019-05-25T05:34:00.084Z,24.21
2019-05-25T05:36:07.853Z,23.55
2019-05-25T05:38:16.197Z,23.57
2019-05-25T05:40:25.675Z,22.96
2019-05-25T05:42:35.213Z,22.75
2019-05-25T05:44:45.773Z,22.60
2019-05-25T05:46:55.797Z,22.81
2019-05-25T05:49:03.828Z,22.55
2019-05-25T05:51:14.156Z,22.22
2019-05-25T05:53:23.358Z,22.43
2019-05-25T05:55:33.585Z,22.82
2019-05-25T05:57:40.029Z,23.38
2019-05-25T05:59:46.512Z,22.83
2019-05-25T06:01:54.493Z,22.47
2019-05-25T06:04:02.088Z,23.15
2019-05-25T06:06:08.739Z,22.69
2019-05-25T06:08:15.217Z,21.75
2019-05-25T06:10:23.067Z,21.13
2019-05-25T06:12:29.511Z,20.91
2019-05-25T06:14:35.905Z,20.42
2019-05-25T06:16:42.400Z,20.43
2019-05-25T06:18:48.911Z,20.09
2019-05-25T06:20:55.322Z,19.43
2019-05-25T06:23:01.809Z,19.55
2019-05-25T06:25:11.174Z,18.49
2019-05-25T06:27:27.041Z,18.47
2019-05-25T06:29:26.849Z,18.66
2019-05-25T06:31:33.243Z,18.33
2019-05-25T06:33:39.708Z,18.00
2019-05-25T06:35:48.167Z,17.42
2019-05-25T06:37:54.590Z,17.47
2019-05-25T06:40:01.830Z,17.43
2019-05-25T06:42:10.318Z,17.29
2019-05-25T06:44:18.114Z,17.28
2019-05-25T06:46:25.442Z,17.95
2019-05-25T06:48:31.986Z,16.58
2019-05-25T06:50:38.544Z,15.85
2019-05-25T06:52:44.980Z,15.39
2019-05-25T06:54:51.394Z,15.05
2019-05-25T06:56:57.845Z,15.38
2019-05-25T06:59:04.736Z,15.74
2019-05-25T07:01:11.326Z,15.33
2019-05-25T07:03:17.693Z,14.59
2019-05-25T07:05:24.140Z,14.16
2019-05-25T07:07:30.600Z,13.81
2019-05-25T07:09:37.676Z,13.83
2019-05-25T07:11:44.126Z,14.28
2019-05-25T07:13:50.610Z,13.70
2019-05-25T07:15:57.036Z,14.14
2019-05-25T07:18:03.680Z,14.84
2019-05-25T07:20:11.653Z,14.60
2019-05-25T07:22:18.023Z,14.27
2019-05-25T07:24:26.083Z,14.69
2019-05-25T07:26:32.488Z,14.92
2019-05-25T07:28:38.942Z,14.29
2019-05-25T07:30:46.711Z,13.95
2019-05-25T07:32:53.450Z,13.77
2019-05-25T07:34:59.800Z,13.22
2019-05-25T07:37:06.336Z,12.08
2019-05-25T07:39:12.850Z,12.98
2019-05-25T07:41:19.283Z,13.05
2019-05-25T07:43:25.706Z,13.44
2019-05-25T07:45:32.223Z,13.62
2019-05-25T07:47:38.899Z,12.78
2019-05-25T07:49:45.328Z,12.92
2019-05-25T07:51:51.746Z,12.37
2019-05-25T07:53:58.148Z,12.82
2019-05-25T07:56:04.507Z,11.25
2019-05-25T07:58:17.163Z,11.78
2019-05-25T08:00:20.756Z,11.58
2019-05-25T08:02:27.169Z,11.82
2019-05-25T08:04:33.656Z,12.44
2019-05-25T08:06:40.076Z,12.72
2019-05-25T08:08:46.693Z,14.52
2019-05-25T08:10:53.794Z,16.72
2019-05-25T08:13:00.332Z,18.08
2019-05-25T08:15:09.158Z,19.79
2019-05-25T08:17:15.518Z,20.73
2019-05-25T08:19:23.500Z,21.21
2019-05-25T08:21:29.963Z,21.69
2019-05-25T08:23:36.370Z,22.70
2019-05-25T08:25:42.855Z,22.21
2019-05-25T08:27:49.626Z,22.95
2019-05-25T08:29:56.125Z,22.91
2019-05-25T08:32:02.585Z,22.99
2019-05-25T08:34:09.154Z,22.52
2019-05-25T08:36:17.246Z,21.53
2019-05-25T08:38:23.929Z,21.76
2019-05-25T08:40:30.370Z,22.86
2019-05-25T08:42:36.822Z,24.05
2019-05-25T08:44:43.296Z,24.39
2019-05-25T08:46:49.717Z,24.20
2019-05-25T08:48:56.080Z,24.51
2019-05-25T08:51:02.511Z,25.38
2019-05-25T08:53:10.101Z,26.36
2019-05-25T08:55:16.983Z,26.54
2019-05-25T08:57:23.357Z,26.76
2019-05-25T08:59:29.825Z,27.44
2019-05-25T09:01:36.264Z,26.99
2019-05-25T09:03:44.277Z,26.86
2019-05-25T09:05:50.754Z,26.12
2019-05-25T09:07:57.175Z,26.72
2019-05-25T09:10:04.934Z,26.84
2019-05-25T09:12:11.385Z,27.38
2019-05-25T09:14:18.096Z,26.81
2019-05-25T09:16:24.715Z,26.90
2019-05-25T09:18:32.742Z,27.32
2019-05-25T09:20:39.216Z,27.53
2019-05-25T09:22:45.772Z,26.59
2019-05-25T09:24:53.381Z,26.13
2019-05-25T09:27:02.630Z,27.73
2019-05-25T09:29:10.986Z,27.72
2019-05-25T09:31:18.598Z,27.78
2019-05-25T09:33:25.016Z,27.54
2019-05-25T09:35:31.521Z,27.59
2019-05-25T09:37:37.989Z,29.05
2019-05-25T09:39:44.467Z,28.84
2019-05-25T09:41:52.999Z,29.10
2019-05-25T09:43:59.497Z,28.15
2019-05-25T09:46:06.111Z,28.24
2019-05-25T09:48:13.965Z,28.04
2019-05-25T09:50:22.643Z,28.28
2019-05-25T09:52:28.348Z,28.99
2019-05-25T09:54:34.823Z,28.37
2019-05-25T09:56:43.067Z,29.39
2019-05-25T09:58:49.472Z,29.08
2019-05-25T10:00:56.129Z,29.25
2019-05-25T10:03:02.921Z,29.01
2019-05-25T10:05:11.726Z,29.16
2019-05-25T10:07:19.501Z,29.91
2019-05-25T10:09:27.055Z,29.74
2019-05-25T10:11:35.407Z,29.36
2019-05-25T10:13:41.860Z,29.73
2019-05-25T10:15:52.027Z,29.66
2019-05-25T10:17:58.614Z,30.38
2019-05-25T10:20:08.258Z,30.28
2019-05-25T10:22:16.229Z,30.74
2019-05-25T10:24:22.967Z,30.69
2019-05-25T10:26:33.274Z,30.68
2019-05-25T10:28:39.768Z,30.66
2019-05-25T10:30:46.172Z,31.21
2019-05-25T10:32:52.611Z,30.14
2019-05-25T10:35:00.526Z,30.00
2019-05-25T10:37:08.948Z,30.91
2019-05-25T10:39:15.364Z,30.84
2019-05-25T10:41:21.768Z,31.05
2019-05-25T10:43:29.459Z,30.29
2019-05-25T10:45:36.004Z,30.00
2019-05-25T10:47:42.633Z,30.16
2019-05-25T10:49:50.074Z,29.78
2019-05-25T10:51:56.935Z,29.87
2019-05-25T10:54:03.331Z,30.64
2019-05-25T10:56:09.707Z,30.01
2019-05-25T10:58:16.210Z,29.83
2019-05-25T11:00:24.251Z,30.22
2019-05-25T11:02:30.736Z,29.35
2019-05-25T11:04:37.350Z,29.24
2019-05-25T11:06:43.869Z,29.75
2019-05-25T11:08:50.305Z,29.19
2019-05-25T11:10:56.745Z,29.91
2019-05-25T11:13:03.401Z,29.50
2019-05-25T11:15:10.690Z,29.10
2019-05-25T11:17:17.288Z,29.30
2019-05-25T11:19:24.512Z,28.54
2019-05-25T11:21:31.131Z,28.85
2019-05-25T11:23:37.526Z,29.43
2019-05-25T11:25:43.968Z,28.96
2019-05-25T11:27:51.450Z,29.00
2019-05-25T11:30:08.473Z,29.20
2019-05-25T11:32:08.973Z,28.62
2019-05-25T11:34:15.239Z,28.60
2019-05-25T11:36:21.647Z,27.81
2019-05-25T11:38:28.206Z,27.97
2019-05-25T11:40:34.814Z,27.80
2019-05-25T11:42:41.719Z,27.64
2019-05-25T11:44:48.212Z,28.02
2019-05-25T11:46:54.726Z,28.21
2019-05-25T11:49:01.201Z,27.57
2019-05-25T11:51:07.726Z,28.34
2019-05-25T11:53:14.238Z,28.68
2019-05-25T11:55:23.845Z,29.14
2019-05-25T11:57:30.297Z,28.82
2019-05-25T11:59:37.764Z,29.43
2019-05-25T12:01:44.284Z,29.20
2019-05-25T12:03:50.667Z,29.48
2019-05-25T12:05:57.113Z,29.56
2019-05-25T12:08:03.567Z,28.90
2019-05-25T12:10:11.261Z,28.74
2019-05-25T12:12:17.863Z,28.27
2019-05-25T12:14:24.282Z,28.43
2019-05-25T12:16:30.712Z,28.55
2019-05-25T12:18:37.309Z,28.46
2019-05-25T12:20:43.756Z,28.46
2019-05-25T12:22:50.476Z,28.70
2019-05-25T12:24:57.163Z,29.15
2019-05-25T12:27:03.711Z,29.13
2019-05-25T12:29:10.194Z,29.17
2019-05-25T12:31:17.727Z,28.86
2019-05-25T12:33:24.171Z,28.82
2019-05-25T12:35:30.614Z,28.55
2019-05-25T12:37:37.143Z,27.85
2019-05-25T12:39:43.691Z,27.59
2019-05-25T12:41:50.106Z,27.84
2019-05-25T12:43:56.613Z,27.44
2019-05-25T12:46:03.030Z,27.74
2019-05-25T12:48:09.390Z,27.55
2019-05-25T12:50:17.963Z,28.00
2019-05-25T12:52:24.492Z,28.05
2019-05-25T12:54:31.359Z,28.48
2019-05-25T12:56:37.932Z,28.50
2019-05-25T12:58:44.304Z,27.85
2019-05-25T13:00:56.109Z,28.04
2019-05-25T13:02:58.954Z,27.69
2019-05-25T13:05:07.651Z,27.88
2019-05-25T13:07:14.092Z,28.16
2019-05-25T13:09:20.536Z,27.63
2019-05-25T13:11:27.091Z,27.29
2019-05-25T13:13:33.556Z,27.48
2019-05-25T13:15:39.910Z,27.34
2019-05-25T13:17:46.410Z,27.25
2019-05-25T13:19:52.861Z,27.23
2019-05-25T13:21:59.350Z,26.90
2019-05-25T13:24:06.759Z,27.51
2019-05-25T13:26:13.139Z,26.88
2019-05-25T13:28:19.571Z,27.42
2019-05-25T13:30:25.998Z,27.24
2019-05-25T13:32:32.502Z,27.02
2019-05-25T13:34:38.917Z,27.56
2019-05-25T13:36:45.794Z,27.48
2019-05-25T13:38:52.292Z,27.96
2019-05-25T13:40:58.727Z,28.15
2019-05-25T13:43:05.204Z,28.35
2019-05-25T13:45:11.781Z,28.97
2019-05-25T13:47:18.250Z,29.12
2019-05-25T13:49:24.674Z,29.08
2019-05-25T13:51:31.079Z,29.99
2019-05-25T13:53:37.513Z,30.04
2019-05-25T13:55:43.926Z,30.25
2019-05-25T13:57:51.338Z,30.25
2019-05-25T13:59:57.719Z,30.73
2019-05-25T14:02:04.269Z,30.99
2019-05-25T14:04:10.788Z,31.35
2019-05-25T14:06:17.170Z,31.24
2019-05-25T14:08:23.601Z,31.48
2019-05-25T14:10:30.029Z,31.71
2019-05-25T14:12:36.428Z,31.34
2019-05-25T14:14:42.924Z,30.90
2019-05-25T14:16:49.293Z,29.80
2019-05-25T14:18:55.704Z,29.73
2019-05-25T14:21:02.186Z,29.97
2019-05-25T14:23:08.664Z,30.56
2019-05-25T14:25:15.271Z,30.76
2019-05-25T14:27:22.039Z,31.53
2019-05-25T14:29:28.466Z,31.61
2019-05-25T14:31:44.952Z,31.77
2019-05-25T14:33:43.090Z,32.52
2019-05-25T14:35:49.491Z,32.50
2019-05-25T14:37:57.372Z,32.37
2019-05-25T14:40:05.685Z,32.85
2019-05-25T14:42:12.077Z,32.74
2019-05-25T14:44:18.500Z,32.56
2019-05-25T14:46:27.801Z,32.20
2019-05-25T14:48:33.058Z,31.96
2019-05-25T14:50:42.441Z,32.47
2019-05-25T14:52:48.891Z,32.62
2019-05-25T14:54:55.269Z,33.41
2019-05-25T14:57:03.441Z,33.79
2019-05-25T14:59:10.001Z,33.49
2019-05-25T15:01:16.561Z,33.30
2019-05-25T15:03:24.612Z,32.30
2019-05-25T15:05:31.153Z,31.54
2019-05-25T15:07:37.657Z,31.59
2019-05-25T15:09:44.119Z,31.79
2019-05-25T15:11:53.807Z,31.71
2019-05-25T15:13:58.773Z,31.79
2019-05-25T15:16:05.381Z,32.71
2019-05-25T15:18:11.801Z,32.53
2019-05-25T15:20:19.800Z,32.11
2019-05-25T15:22:26.169Z,32.15
2019-05-25T15:24:32.555Z,32.28
2019-05-25T15:26:38.988Z,32.42
2019-05-25T15:28:45.590Z,32.80
2019-05-25T15:30:52.048Z,33.26
2019-05-25T15:32:58.445Z,33.46
2019-05-25T15:35:08.671Z,33.52
2019-05-25T15:37:15.040Z,33.73
2019-05-25T15:39:21.418Z,33.17
2019-05-25T15:41:27.892Z,33.74
2019-05-25T15:43:34.394Z,33.78
2019-05-25T15:45:40.945Z,33.95
2019-05-25T15:47:47.335Z,33.76
2019-05-25T15:49:54.812Z,34.16
2019-05-25T15:52:01.261Z,34.03
2019-05-25T15:54:10.624Z,34.16
2019-05-25T15:56:16.115Z,34.26
2019-05-25T15:58:22.630Z,34.12
2019-05-25T16:00:52.007Z,34.81
2019-05-25T16:02:58.442Z,34.82
2019-05-25T16:05:07.569Z,34.88
2019-05-25T16:07:15.166Z,33.94
2019-05-25T16:09:21.714Z,34.21
2019-05-25T16:11:31.983Z,34.30
2019-05-25T16:13:37.186Z,35.16
2019-05-25T16:15:43.700Z,35.44
2019-05-25T16:17:50.355Z,35.90
2019-05-25T16:19:56.711Z,35.97
2019-05-25T16:22:03.229Z,35.84
2019-05-25T16:24:09.727Z,35.52
2019-05-25T16:26:16.148Z,35.28
2019-05-25T16:28:22.742Z,34.51
2019-05-25T16:30:31.362Z,34.79
2019-05-25T16:33:09.919Z,35.01
2019-05-25T16:34:45.470Z,34.80
2019-05-25T16:37:04.450Z,34.72
2019-05-25T16:39:10.913Z,35.11
2019-05-25T16:41:17.423Z,35.23
2019-05-25T16:43:23.917Z,35.34
2019-05-25T16:45:30.595Z,34.72
2019-05-25T16:47:37.388Z,34.46
2019-05-25T16:49:43.758Z,34.59
2019-05-25T16:51:50.138Z,34.81
2019-05-25T16:53:56.580Z,35.09
2019-05-25T16:56:03.013Z,35.25
2019-05-25T16:58:09.434Z,35.76
2019-05-25T17:00:26.743Z,36.44
2019-05-25T17:02:33.104Z,36.99
2019-05-25T17:04:40.918Z,37.09
2019-05-25T17:06:47.305Z,37.65
2019-05-25T17:08:56.181Z,38.64
2019-05-25T17:11:01.973Z,38.70
2019-05-25T17:13:08.430Z,39.53
2019-05-25T17:15:14.841Z,39.70
2019-05-25T17:17:21.237Z,40.04
2019-05-25T17:19:27.613Z,40.43
2019-05-25T17:21:33.991Z,40.82
2019-05-25T17:23:40.431Z,41.12
2019-05-25T17:25:46.873Z,41.39
2019-05-25T17:27:53.303Z,41.42
2019-05-25T17:29:59.808Z,41.79
2019-05-25T17:32:07.025Z,42.18
2019-05-25T17:34:13.848Z,42.28
2019-05-25T17:36:20.213Z,42.61
2019-05-25T17:38:26.733Z,43.20
2019-05-25T17:40:33.323Z,43.00
2019-05-25T17:42:39.757Z,43.34
2019-05-25T17:44:46.167Z,43.40
2019-05-25T17:46:52.644Z,44.03
2019-05-25T17:48:59.079Z,44.04
2019-05-25T17:51:06.898Z,44.28
2019-05-25T17:53:13.426Z,44.69
2019-05-25T17:55:24.037Z,44.84
2019-05-25T17:57:30.530Z,45.00
2019-05-25T17:59:36.974Z,44.95
2019-05-25T18:01:43.405Z,45.13
2019-05-25T18:04:05.635Z,45.54
2019-05-25T18:05:58.202Z,45.49
2019-05-25T18:08:05.939Z,46.22
2019-05-25T18:10:12.920Z,46.43
2019-05-25T18:12:19.268Z,46.94
2019-05-25T18:14:25.696Z,47.95
2019-05-25T18:16:32.119Z,48.76
2019-05-25T18:18:38.576Z,48.79
2019-05-25T18:20:45.059Z,50.25
2019-05-25T18:22:51.675Z,50.76
2019-05-25T18:24:58.039Z,51.35
2019-05-25T18:27:04.737Z,51.23
2019-05-25T18:29:11.243Z,51.89
2019-05-25T18:31:17.724Z,52.54
2019-05-25T18:33:24.234Z,52.91
2019-05-25T18:35:30.862Z,53.57
2019-05-25T18:37:37.360Z,53.99
2019-05-25T18:39:43.775Z,54.18
2019-05-25T18:41:50.281Z,54.22
2019-05-25T18:43:56.660Z,54.56
2019-05-25T18:46:05.271Z,54.98
2019-05-25T18:48:11.658Z,55.41
2019-05-25T18:50:18.888Z,55.57
2019-05-25T18:52:25.286Z,55.57
2019-05-25T18:54:31.814Z,56.03
2019-05-25T18:56:38.226Z,56.05
2019-05-25T18:58:44.658Z,56.10
2019-05-25T19:00:51.181Z,56.08
2019-05-25T19:02:57.597Z,56.37
2019-05-25T19:05:05.163Z,56.70
2019-05-25T19:07:11.675Z,56.82
2019-05-25T19:09:18.060Z,57.31
2019-05-25T19:11:24.666Z,57.76
2019-05-25T19:13:31.164Z,57.50
2019-05-25T19:15:37.976Z,57.62
2019-05-25T19:17:44.455Z,57.74
2019-05-25T19:19:50.881Z,57.98
2019-05-25T19:21:57.374Z,58.01
2019-05-25T19:24:03.765Z,58.32
2019-05-25T19:26:10.298Z,58.13
2019-05-25T19:28:16.748Z,58.30
2019-05-25T19:30:24.198Z,58.56
2019-05-25T19:32:32.020Z,58.54
2019-05-25T19:34:38.484Z,58.68
2019-05-25T19:36:44.882Z,58.79
2019-05-25T19:38:51.288Z,58.97
2019-05-25T19:40:57.774Z,59.08
2019-05-25T19:43:04.490Z,59.26
2019-05-25T19:45:13.197Z,59.81
2019-05-25T19:47:19.653Z,59.70
2019-05-25T19:49:26.140Z,59.80
2019-05-25T19:51:32.564Z,60.33
2019-05-25T19:53:39.074Z,60.68
2019-05-25T19:55:45.514Z,60.68
2019-05-25T19:57:51.945Z,61.18
2019-05-25T19:59:59.547Z,61.38
2019-05-25T20:02:06.149Z,61.70
2019-05-25T20:04:12.566Z,61.86
2019-05-25T20:06:18.972Z,62.67
2019-05-25T20:08:25.364Z,62.50
2019-05-25T20:10:32.492Z,63.20
2019-05-25T20:12:38.904Z,63.44
2019-05-25T20:14:45.387Z,63.60
2019-05-25T20:16:51.836Z,64.14
2019-05-25T20:18:58.287Z,64.12
2019-05-25T20:21:04.735Z,64.42
2019-05-25T20:23:12.239Z,64.70
2019-05-25T20:25:18.918Z,64.96
2019-05-25T20:27:25.355Z,64.93
2019-05-25T20:29:31.860Z,65.16
2019-05-25T20:31:38.344Z,65.42
2019-05-25T20:33:44.791Z,65.59
2019-05-25T20:35:51.187Z,66.16
2019-05-25T20:37:57.610Z,66.19
2019-05-25T20:40:05.745Z,66.53
2019-05-25T20:42:14.987Z,66.64
2019-05-25T20:44:20.519Z,66.80
2019-05-25T20:46:27.020Z,67.11
2019-05-25T20:48:33.472Z,67.25
2019-05-25T20:50:39.944Z,67.49
2019-05-25T20:52:46.435Z,67.50
2019-05-25T20:54:52.842Z,67.66
2019-05-25T20:56:59.233Z,67.98
2019-05-25T20:59:06.178Z,67.95
2019-05-25T21:01:12.729Z,68.17
2019-05-25T21:03:19.348Z,68.13
2019-05-25T21:05:25.803Z,68.04
2019-05-25T21:07:32.365Z,68.30
2019-05-25T21:09:38.768Z,68.45
2019-05-25T21:11:45.199Z,68.66
2019-05-25T21:13:51.676Z,68.96
2019-05-25T21:15:58.101Z,68.86
2019-05-25T21:18:04.695Z,68.94
2019-05-25T21:20:14.792Z,69.12
2019-05-25T21:22:21.199Z,69.01
2019-05-25T21:24:27.665Z,68.84
2019-05-25T21:26:34.370Z,68.87
2019-05-25T21:28:40.785Z,68.77
2019-05-25T21:30:47.707Z,68.86
2019-05-25T21:32:54.128Z,68.74
2019-05-25T21:35:00.512Z,68.53
2019-05-25T21:37:06.891Z,68.42
2019-05-25T21:39:14.155Z,68.28
2019-05-25T21:41:21.082Z,68.76
2019-05-25T21:43:27.513Z,68.87
2019-05-25T21:45:33.996Z,68.81
2019-05-25T21:47:40.366Z,68.74
2019-05-25T21:49:46.863Z,68.87
2019-05-25T21:51:53.641Z,68.94
2019-05-25T21:54:00.056Z,69.66
2019-05-25T21:56:08.327Z,69.33
2019-05-25T21:58:14.739Z,69.67
2019-05-25T22:00:23.390Z,69.54
2019-05-25T22:03:09.606Z,69.86
2019-05-25T22:05:16.434Z,70.11
2019-05-25T22:07:23.128Z,70.00
2019-05-25T22:09:29.804Z,70.26
2019-05-25T22:11:36.762Z,70.04
2019-05-25T22:13:43.492Z,70.01
2019-05-25T22:15:50.242Z,69.97
2019-05-25T22:17:56.938Z,69.66
2019-05-25T22:20:04.766Z,69.76
2019-05-25T22:22:11.420Z,69.86
2019-05-25T22:24:18.075Z,69.91
2019-05-25T22:26:24.831Z,69.95
2019-05-25T22:28:44.213Z,70.22
2019-05-25T22:30:41.016Z,70.22
2019-05-25T22:32:47.710Z,70.17
2019-05-25T22:34:54.439Z,70.54
2019-05-25T22:37:01.346Z,70.25
2019-05-25T22:39:10.887Z,70.83
2019-05-25T22:41:19.936Z,70.75
2019-05-25T22:43:26.977Z,71.03
2019-05-25T22:45:33.842Z,71.13
2019-05-25T22:47:40.605Z,71.12
2019-05-25T22:49:47.280Z,71.49
2019-05-25T22:51:53.940Z,71.47
2019-05-25T22:54:00.584Z,71.20
2019-05-25T22:56:07.350Z,71.36
2019-05-25T22:58:14.019Z,71.41
2019-05-25T23:00:20.818Z,71.53
2019-05-25T23:02:27.191Z,71.69
2019-05-25T23:05:07.245Z,71.70
2019-05-25T23:07:14.407Z,71.87
2019-05-25T23:09:20.866Z,71.79
2019-05-25T23:11:27.311Z,72.13
2019-05-25T23:13:33.814Z,72.46
2019-05-25T23:15:40.253Z,72.29
2019-05-25T23:17:46.653Z,72.54
2019-05-25T23:19:53.097Z,72.51
2019-05-25T23:22:00.229Z,73.03
2019-05-25T23:24:06.804Z,74.12
2019-05-25T23:26:13.293Z,74.53
2019-05-25T23:28:19.765Z,74.95
2019-05-25T23:30:27.857Z,75.02
2019-05-25T23:32:34.565Z,75.18
2019-05-25T23:34:40.980Z,75.32
2019-05-25T23:36:47.529Z,75.75
2019-05-25T23:38:53.941Z,76.36
2019-05-25T23:41:00.318Z,76.39
2019-05-25T23:43:08.026Z,76.72
2019-05-25T23:45:16.864Z,76.69
2019-05-25T23:47:23.338Z,76.81
2019-05-25T23:49:29.731Z,76.78
2019-05-25T23:51:37.447Z,77.21
2019-05-25T23:53:43.836Z,77.46
2019-05-25T23:55:50.286Z,77.94
2019-05-25T23:57:56.785Z,78.04
